Time;durP1;ratioP1;P1;durP2;ratioP2;P2;SDS_P1;SDS_P2;PMS_P1;PMS_P2;Temp;Humidity;BMP_temperature;BMP_pressure;BME280_temperature;BME280_humidity;BME280_pressure;Samples;Min_cycle;Max_cycle;Signal;HPM_P1;HPM_P2
2022/08/19 00:02:00;;;;;;;18.80;15.07;;;;;;;21.74;68.54;99975.47;5101475;28;20046;-72
2022/08/19 00:04:32;;;;;;;19.40;15.50;;;;;;;21.79;68.61;99978.56;5099112;28;20141;-71
2022/08/19 00:06:59;;;;;;;20.08;16.35;;;;;;;21.81;68.34;99990.88;5102171;28;20046;-70
2022/08/19 00:09:27;;;;;;;18.10;15.35;;;;;;;21.81;68.63;99992.72;5105037;28;20036;-72
2022/08/19 00:11:56;;;;;;;18.63;15.43;;;;;;;21.81;68.69;99993.56;5099745;28;20051;-70
2022/08/19 00:14:24;;;;;;;20.20;15.48;;;;;;;21.83;68.30;99988.88;5101148;28;20096;-69
2022/08/19 00:16:53;;;;;;;17.15;14.77;;;;;;;21.80;68.41;99982.94;5104649;28;20565;-71
2022/08/19 00:19:21;;;;;;;17.23;15.20;;;;;;;21.74;68.21;99967.38;5099798;28;20482;-71
2022/08/19 00:21:48;;;;;;;21.17;15.15;;;;;;;21.79;68.09;99968.63;5102699;28;20121;-69
2022/08/19 00:24:15;;;;;;;19.95;16.38;;;;;;;21.80;68.34;99966.78;5106312;28;20044;-72
2022/08/19 00:26:44;;;;;;;20.27;16.75;;;;;;;21.64;68.60;99954.00;5103030;27;20048;-72
2022/08/19 00:29:13;;;;;;;22.20;16.98;;;;;;;21.76;68.58;99962.69;5103334;27;20036;-70
2022/08/19 00:31:41;;;;;;;20.55;17.30;;;;;;;21.71;68.49;99957.78;5123609;27;20451;-70
2022/08/19 00:34:08;;;;;;;18.25;15.82;;;;;;;21.56;68.76;99941.28;5122437;28;20138;-69
2022/08/19 00:36:35;;;;;;;19.50;16.50;;;;;;;21.64;69.17;99962.06;5105917;28;20047;-70
2022/08/19 00:39:02;;;;;;;19.75;16.50;;;;;;;21.54;69.17;99942.44;5107550;28;20115;-70
2022/08/19 00:41:28;;;;;;;20.02;15.55;;;;;;;21.63;69.00;99952.28;5108921;28;20735;-72
2022/08/19 00:44:06;;;;;;;22.75;17.75;;;;;;;21.60;68.80;99939.13;5104318;27;20043;-71
2022/08/19 00:46:36;;;;;;;20.17;16.17;;;;;;;21.57;68.50;99939.41;5107711;27;20092;-71
2022/08/19 00:49:09;;;;;;;22.27;17.20;;;;;;;21.61;68.56;99946.19;5102996;28;20071;-72
2022/08/19 00:51:36;;;;;;;20.83;15.70;;;;;;;21.65;68.27;99951.13;5105128;27;20065;-71
2022/08/19 00:54:03;;;;;;;18.65;16.02;;;;;;;21.64;68.32;99945.91;5102547;28;20122;-71
2022/08/19 00:56:31;;;;;;;18.95;15.40;;;;;;;21.69;68.19;99951.69;5107876;28;20048;-70
2022/08/19 00:59:01;;;;;;;19.45;15.60;;;;;;;21.71;67.99;99952.38;5104207;27;20078;-70
2022/08/19 01:01:28;;;;;;;19.30;15.80;;;;;;;21.73;68.33;99941.41;5108592;28;20147;-74
2022/08/19 01:03:55;;;;;;;18.40;14.30;;;;;;;21.66;68.17;99925.88;5100284;28;20495;-71
2022/08/19 01:06:25;;;;;;;19.35;15.05;;;;;;;21.64;68.05;99914.41;5104366;28;20071;-71
2022/08/19 01:08:52;;;;;;;16.80;14.57;;;;;;;21.72;67.91;99929.81;5105994;28;20690;-70
2022/08/19 01:11:18;;;;;;;18.63;14.77;;;;;;;21.69;67.86;99908.56;5105051;27;20101;-70
2022/08/19 01:13:46;;;;;;;18.35;14.85;;;;;;;21.70;67.94;99919.19;5105161;27;20543;-71
2022/08/19 01:16:17;;;;;;;21.48;16.40;;;;;;;21.69;67.93;99922.03;5105124;27;20047;-71
2022/08/19 01:18:44;;;;;;;19.35;14.70;;;;;;;21.69;68.08;99927.44;5103183;28;20059;-70
2022/08/19 01:21:42;;;;;;;16.15;14.07;;;;;;;21.70;68.44;99927.28;5106263;28;20472;-70
2022/08/19 01:24:08;;;;;;;16.65;13.88;;;;;;;21.70;68.25;99923.75;5101616;28;20139;-71
2022/08/19 01:26:44;;;;;;;15.32;13.40;;;;;;;21.68;68.54;99923.03;5103055;28;20519;-70
2022/08/19 01:29:12;;;;;;;19.25;14.48;;;;;;;21.72;68.50;99931.66;5100935;28;20039;-71
2022/08/19 01:31:40;;;;;;;15.93;13.68;;;;;;;21.70;68.70;99921.03;5109060;27;20056;-73
2022/08/19 01:34:07;;;;;;;15.95;14.20;;;;;;;21.75;68.11;99926.78;5106653;28;20376;-70
2022/08/19 01:36:45;;;;;;;17.55;14.00;;;;;;;21.77;68.00;99914.03;5108142;27;20075;-70
2022/08/19 01:39:16;;;;;;;14.95;12.77;;;;;;;21.73;67.92;99903.69;5100250;28;20097;-71
2022/08/19 01:41:42;;;;;;;16.45;13.90;;;;;;;21.68;68.01;99904.19;5107481;28;20484;-71
2022/08/19 01:44:10;;;;;;;18.70;13.35;;;;;;;21.76;67.65;99912.31;5106529;28;20056;-72
2022/08/19 01:46:47;;;;;;;17.13;13.50;;;;;;;21.74;67.88;99919.72;5105763;27;20159;-71
2022/08/19 01:49:16;;;;;;;17.37;13.67;;;;;;;21.76;67.68;99922.25;5105695;27;20116;-72
2022/08/19 01:51:42;;;;;;;16.55;13.48;;;;;;;21.71;68.11;99928.13;5110977;27;20043;-72
2022/08/19 01:54:11;;;;;;;17.38;13.32;;;;;;;21.68;67.93;99923.03;5105088;28;20051;-72
2022/08/19 01:56:38;;;;;;;16.38;13.48;;;;;;;21.69;68.07;99924.75;5108851;27;20185;-73
2022/08/19 01:59:11;;;;;;;16.15;13.52;;;;;;;21.67;67.94;99930.28;5100321;27;20122;-70
2022/08/19 02:01:38;;;;;;;15.35;12.65;;;;;;;21.63;68.26;99933.44;5100029;28;20059;-74
2022/08/19 02:04:05;;;;;;;19.95;14.23;;;;;;;21.61;68.30;99935.44;5103143;28;20046;-71
2022/08/19 02:06:32;;;;;;;16.25;13.80;;;;;;;21.58;68.26;99936.56;5102372;28;20046;-70
2022/08/19 02:08:59;;;;;;;16.25;13.93;;;;;;;21.48;68.55;99914.25;5106501;27;20048;-71
2022/08/19 02:11:33;;;;;;;13.65;12.15;;;;;;;21.58;68.76;99931.19;5104519;27;20101;-72
2022/08/19 02:14:03;;;;;;;13.93;12.43;;;;;;;21.57;68.58;99931.34;5102365;28;20052;-71
2022/08/19 02:16:30;;;;;;;17.25;13.75;;;;;;;21.47;68.62;99915.25;5106787;28;20059;-71
2022/08/19 02:19:00;;;;;;;14.10;12.43;;;;;;;21.58;68.60;99930.34;5105118;28;20051;-71
2022/08/19 02:21:28;;;;;;;15.85;13.18;;;;;;;21.46;68.81;99918.09;5105226;27;20043;-70
2022/08/19 02:23:55;;;;;;;15.25;12.77;;;;;;;21.55;68.99;99938.75;5101079;27;20120;-69
2022/08/19 02:26:21;;;;;;;15.93;13.48;;;;;;;21.46;69.06;99934.25;5102828;27;20039;-70
2022/08/19 02:28:48;;;;;;;17.55;12.88;;;;;;;21.38;69.07;99916.19;5101794;27;20074;-70
2022/08/19 02:31:18;;;;;;;13.20;11.77;;;;;;;21.60;69.15;99955.28;5101461;28;20044;-71
2022/08/19 02:33:45;;;;;;;15.73;12.45;;;;;;;21.60;69.16;99957.97;5102741;28;20087;-69
2022/08/19 02:36:13;;;;;;;16.65;12.43;;;;;;;21.58;69.17;99963.53;5087274;28;20097;-71
2022/08/19 02:38:42;;;;;;;16.23;11.70;;;;;;;21.61;69.36;99954.28;5104163;28;20118;-70
2022/08/19 02:41:18;;;;;;;13.32;11.93;;;;;;;21.60;69.56;99956.13;5105492;28;20043;-70
2022/08/19 02:43:45;;;;;;;15.85;12.95;;;;;;;21.56;69.49;99951.22;5099931;28;20063;-71
2022/08/19 02:46:33;;;;;;;13.07;10.88;;;;;;;21.55;69.82;99957.63;5101069;28;20044;-70
2022/08/19 02:49:04;;;;;;;13.93;11.60;;;;;;;21.53;69.61;99944.28;5104806;27;20122;-71
2022/08/19 02:51:35;;;;;;;13.75;11.60;;;;;;;21.57;69.67;99945.66;5100923;27;20067;-70
2022/08/19 02:54:03;;;;;;;14.50;11.50;;;;;;;21.57;69.68;99955.59;5091452;28;20479;-71
2022/08/19 02:56:31;;;;;;;14.32;11.60;;;;;;;21.54;69.64;99946.00;5097400;28;20083;-71
2022/08/19 02:58:58;;;;;;;14.35;12.70;;;;;;;21.50;69.87;99955.38;5103024;28;20101;-70
2022/08/19 03:01:29;;;;;;;15.38;13.18;;;;;;;21.47;70.05;99954.81;5098803;28;20113;-70
2022/08/19 03:03:56;;;;;;;14.50;13.02;;;;;;;21.41;70.49;99960.84;5101602;28;20051;-69
2022/08/19 03:06:23;;;;;;;13.80;12.07;;;;;;;21.35;70.82;99951.50;5078848;28;20127;-72
2022/08/19 03:08:50;;;;;;;17.70;12.82;;;;;;;21.34;70.76;99952.50;5102590;28;20043;-70
2022/08/19 03:11:26;;;;;;;14.82;12.25;;;;;;;21.30;71.07;99949.25;5104625;28;20097;-69
2022/08/19 03:13:54;;;;;;;17.35;13.23;;;;;;;21.28;71.24;99950.41;5103261;28;20127;-71
2022/08/19 03:16:27;;;;;;;15.05;12.55;;;;;;;21.23;71.55;99947.34;5107854;28;20043;-70
2022/08/19 03:18:55;;;;;;;18.80;13.45;;;;;;;21.13;71.55;99936.56;5106584;28;20046;-70
2022/08/19 03:21:24;;;;;;;13.75;12.23;;;;;;;21.24;71.49;99955.25;5111875;28;20066;-71
2022/08/19 03:23:55;;;;;;;15.02;13.18;;;;;;;21.23;71.87;99966.19;5106710;28;20608;-69
2022/08/19 03:26:21;;;;;;;16.02;13.02;;;;;;;21.02;71.82;99934.94;5102120;28;20499;-72
2022/08/19 03:28:49;;;;;;;14.68;12.18;;;;;;;21.15;72.05;99953.41;5099759;28;20146;-70
2022/08/19 03:31:25;;;;;;;15.80;12.98;;;;;;;21.13;72.18;99968.88;5103306;28;20046;-70
2022/08/19 03:34:17;;;;;;;17.95;13.23;;;;;;;21.07;72.10;99966.81;5087984;28;20054;-72
2022/08/19 03:36:45;;;;;;;15.15;11.98;;;;;;;21.07;72.33;99976.72;5105017;28;20043;-72
2022/08/19 03:39:12;;;;;;;17.17;13.93;;;;;;;21.03;72.59;99976.16;5104967;28;20510;-72
2022/08/19 03:41:41;;;;;;;13.95;12.45;;;;;;;21.02;72.67;99972.63;5106766;28;20086;-71
2022/08/19 03:44:17;;;;;;;16.80;12.75;;;;;;;21.04;72.79;99971.63;5084466;28;20107;-70
2022/08/19 03:46:55;;;;;;;15.10;12.30;;;;;;;21.00;72.64;99969.22;5102976;28;20048;-72
2022/08/19 03:49:23;;;;;;;15.20;12.55;;;;;;;20.88;72.95;99950.72;5103698;28;20040;-71
2022/08/19 03:51:56;;;;;;;14.43;12.73;;;;;;;21.00;72.65;99965.69;5096298;28;20047;-72
2022/08/19 03:54:24;;;;;;;13.90;12.43;;;;;;;20.88;73.09;99940.81;5104138;28;20077;-74
2022/08/19 03:56:53;;;;;;;15.13;12.15;;;;;;;21.06;72.71;99975.03;5102658;28;20075;-71
2022/08/19 03:59:24;;;;;;;13.90;12.50;;;;;;;21.13;72.47;99976.94;5111473;28;20936;-72
2022/08/19 04:01:53;;;;;;;16.40;12.82;;;;;;;21.18;72.47;99977.34;5113677;27;20039;-72
2022/08/19 04:04:19;;;;;;;16.50;12.32;;;;;;;21.16;72.24;99965.88;5106050;28;20130;-73
2022/08/19 04:06:46;;;;;;;15.40;11.98;;;;;;;21.13;71.94;99973.41;5111571;27;20709;-73
2022/08/19 04:09:13;;;;;;;15.23;12.48;;;;;;;21.10;72.16;99979.09;5109724;28;20044;-72
2022/08/19 04:11:46;;;;;;;16.95;13.15;;;;;;;21.10;72.30;99981.78;5109450;27;20174;-71
2022/08/19 04:14:17;;;;;;;13.48;11.75;;;;;;;21.07;72.12;99980.25;5103202;28;20067;-69
2022/08/19 04:16:44;;;;;;;13.23;11.70;;;;;;;21.08;72.62;99986.50;5098825;27;20503;-72
2022/08/19 04:19:12;;;;;;;17.90;12.77;;;;;;;21.07;72.57;99990.19;5107062;28;20113;-69
2022/08/19 04:21:39;;;;;;;14.07;11.52;;;;;;;21.00;72.73;99989.91;5104833;27;20082;-72
2022/08/19 04:24:06;;;;;;;17.58;12.35;;;;;;;20.96;72.83;99983.13;5095175;27;20469;-73
2022/08/19 04:26:36;;;;;;;15.40;12.82;;;;;;;20.83;73.33;99961.09;5098333;28;20066;-69
2022/08/19 04:29:26;;;;;;;14.60;12.30;;;;;;;20.81;73.31;99977.38;5099483;27;20464;-70
2022/08/19 04:31:55;;;;;;;15.73;12.38;;;;;;;20.81;73.93;99979.22;5093214;27;20044;-71
2022/08/19 04:34:24;;;;;;;13.77;12.30;;;;;;;20.77;74.05;99972.47;5093523;27;20048;-71
2022/08/19 04:36:53;;;;;;;14.05;12.52;;;;;;;20.71;74.01;99971.19;5078777;27;20134;-71
2022/08/19 04:42:38;;;;;;;14.18;11.95;;;;;;;20.71;74.18;99971.19;5098918;27;20052;-71
2022/08/19 04:44:58;;;;;;;13.75;11.45;;;;;;;20.66;74.65;99963.56;5098114;27;19928;-71
2022/08/19 04:47:25;;;;;;;13.48;11.82;;;;;;;20.80;74.23;99985.59;5097451;27;20093;-70
2022/08/19 04:50:11;;;;;;;13.63;11.52;;;;;;;20.78;74.06;99983.03;5101849;28;20043;-69
2022/08/19 04:52:42;;;;;;;13.82;11.80;;;;;;;20.78;73.93;99974.16;5097291;28;20474;-70
2022/08/19 04:55:14;;;;;;;16.92;12.35;;;;;;;20.94;73.76;99985.97;5094515;28;20040;-71
2022/08/19 04:57:40;;;;;;;12.63;11.27;;;;;;;21.01;73.61;99994.31;5107315;27;20043;-71
2022/08/19 05:00:10;;;;;;;13.70;11.60;;;;;;;21.02;73.42;99993.31;5099800;28;20633;-71
2022/08/19 05:02:38;;;;;;;13.82;10.80;;;;;;;20.94;73.04;99979.72;5101581;28;20067;-70
2022/08/19 05:05:06;;;;;;;14.20;11.27;;;;;;;21.00;73.40;99985.38;5102411;27;20174;-70
2022/08/19 05:07:33;;;;;;;15.95;12.07;;;;;;;21.08;73.13;100000.81;5104924;28;20127;-70
2022/08/19 05:10:00;;;;;;;14.52;11.75;;;;;;;21.11;73.09;100003.16;5107290;28;20117;-72
2022/08/19 05:12:28;;;;;;;12.27;10.55;;;;;;;21.16;72.74;99995.50;5104995;27;20078;-70
2022/08/19 05:14:56;;;;;;;12.68;11.38;;;;;;;21.18;72.85;99990.81;5098286;28;20067;-70
2022/08/19 05:17:24;;;;;;;11.80;10.52;;;;;;;21.20;72.71;99986.16;5097481;27;20158;-73
2022/08/19 05:22:41;;;;;;;12.75;9.80;;;;;;;21.30;72.82;100003.13;5100735;28;20642;-71
2022/08/19 05:25:11;;;;;;;13.55;10.93;;;;;;;21.36;72.52;99998.97;5102991;28;20568;-70
2022/08/19 05:27:41;;;;;;;15.35;10.48;;;;;;;21.40;71.65;99991.47;5105511;27;20109;-70
2022/08/19 05:30:09;;;;;;;11.73;10.20;;;;;;;21.46;71.85;99986.28;5105514;28;20089;-70
2022/08/19 05:32:35;;;;;;;11.35;9.75;;;;;;;21.52;71.85;99993.78;5100254;28;20127;-70
2022/08/19 05:35:04;;;;;;;11.05;9.45;;;;;;;21.58;71.56;99984.22;5097707;28;20149;-72
2022/08/19 05:37:30;;;;;;;10.90;9.07;;;;;;;21.69;70.98;99995.66;5106641;28;20415;-71
2022/08/19 05:39:57;;;;;;;11.43;9.30;;;;;;;21.72;70.47;99986.41;5106817;28;20419;-71
2022/08/19 05:42:24;;;;;;;10.30;9.23;;;;;;;21.79;70.22;99986.63;5098925;28;20040;-70
2022/08/19 05:44:50;;;;;;;10.68;9.48;;;;;;;21.99;69.89;100005.25;5104726;28;20483;-70
2022/08/19 05:47:19;;;;;;;10.30;8.82;;;;;;;22.05;69.09;100009.16;5106503;27;20071;-70
2022/08/19 05:49:46;;;;;;;13.40;9.52;;;;;;;22.02;69.20;100013.03;5103707;28;20053;-71
2022/08/19 05:52:15;;;;;;;15.85;9.70;;;;;;;21.87;69.42;99987.56;5105473;27;20079;-71
2022/08/19 05:54:47;;;;;;;9.93;8.93;;;;;;;21.95;69.20;99989.47;5102960;27;20048;-71
2022/08/19 05:57:17;;;;;;;12.45;8.77;;;;;;;21.93;68.93;99986.94;5101324;28;20048;-68
2022/08/19 05:59:47;;;;;;;9.75;8.73;;;;;;;22.05;68.83;100001.06;5104953;27;20048;-72
2022/08/19 06:02:14;;;;;;;9.77;8.40;;;;;;;22.07;69.26;100014.38;5092368;28;20108;-68
2022/08/19 06:04:42;;;;;;;9.35;8.27;;;;;;;22.00;68.61;99998.84;5113064;28;20052;-69
2022/08/19 06:07:09;;;;;;;8.75;7.85;;;;;;;22.17;68.94;100020.56;5114018;27;20196;-70
2022/08/19 06:09:39;;;;;;;8.50;7.40;;;;;;;22.27;68.47;100024.00;5105413;28;20046;-72
2022/08/19 06:12:06;;;;;;;10.00;8.38;;;;;;;22.32;67.69;100027.09;5100341;27;20482;-73
2022/08/19 06:14:34;;;;;;;8.80;7.45;;;;;;;22.31;67.13;100010.06;5102844;28;20137;-70
2022/08/19 06:17:05;;;;;;;8.90;7.22;;;;;;;22.39;66.60;100006.56;5101151;28;20058;-70
2022/08/19 06:19:33;;;;;;;8.45;7.65;;;;;;;22.50;66.21;100025.22;5105162;28;20167;-70
2022/08/19 06:22:06;;;;;;;7.88;7.07;;;;;;;22.50;66.05;100027.94;5095075;27;20508;-70
2022/08/19 06:24:33;;;;;;;7.47;6.63;;;;;;;22.57;65.84;100039.75;5097407;27;20054;-71
2022/08/19 06:27:00;;;;;;;7.95;7.10;;;;;;;22.54;66.80;100050.88;5103835;27;20108;-72
2022/08/19 06:29:29;;;;;;;9.55;6.97;;;;;;;22.42;67.05;100048.59;5100321;27;20089;-73
2022/08/19 06:31:59;;;;;;;6.40;5.80;;;;;;;22.39;66.82;100038.94;5096923;27;20173;-71
2022/08/19 06:34:28;;;;;;;9.02;6.82;;;;;;;22.51;67.10;100055.75;5114184;27;20495;-71
2022/08/19 06:36:56;;;;;;;9.27;6.68;;;;;;;22.70;66.25;100047.44;5103063;28;20055;-72
2022/08/19 06:39:25;;;;;;;8.57;6.60;;;;;;;22.87;65.20;100061.94;5103869;27;20043;-72
2022/08/19 06:41:55;;;;;;;9.40;6.45;;;;;;;22.89;64.45;100044.56;5091127;27;20126;-71
2022/08/19 06:44:26;;;;;;;7.90;5.88;;;;;;;23.14;64.39;100079.84;5088605;28;20096;-70
2022/08/19 06:46:54;;;;;;;8.50;6.45;;;;;;;23.31;64.31;100082.44;5098356;28;20050;-71
2022/08/19 06:49:23;;;;;;;11.18;6.05;;;;;;;23.37;62.61;100060.19;5098830;28;20451;-70
2022/08/19 06:51:50;;;;;;;8.20;5.93;;;;;;;23.65;62.78;100068.94;5089955;28;20127;-71
2022/08/19 06:54:18;;;;;;;6.45;5.80;;;;;;;23.89;61.52;100068.19;5096320;27;20130;-70
2022/08/19 06:56:46;;;;;;;6.43;5.70;;;;;;;24.08;60.67;100072.44;5099181;28;20071;-71
2022/08/19 06:59:17;;;;;;;8.18;6.40;;;;;;;23.93;58.87;100052.44;5088504;28;20093;-70
2022/08/19 07:01:46;;;;;;;9.77;7.70;;;;;;;24.18;59.51;100093.94;5099143;28;20044;-70
2022/08/19 07:04:19;;;;;;;9.25;7.03;;;;;;;24.18;58.10;100091.22;5089122;28;20051;-70
2022/08/19 07:06:46;;;;;;;10.57;8.85;;;;;;;24.26;57.77;100091.25;5097850;28;20052;-69
2022/08/19 07:09:20;;;;;;;10.05;8.98;;;;;;;24.35;57.34;100085.69;5096811;27;20094;-71
2022/08/19 07:11:50;;;;;;;11.55;8.20;;;;;;;24.37;57.19;100080.97;5100337;28;20069;-70
2022/08/19 07:14:23;;;;;;;11.20;8.20;;;;;;;24.40;56.65;100087.88;5103628;28;20043;-71
2022/08/19 07:16:51;;;;;;;8.90;6.50;;;;;;;24.29;57.62;100091.78;5100073;28;20563;-70
2022/08/19 07:19:19;;;;;;;9.85;7.63;;;;;;;24.34;57.75;100094.84;5099497;28;20063;-71
2022/08/19 07:21:48;;;;;;;11.77;7.93;;;;;;;24.34;57.81;100078.59;5102223;28;20043;-70
2022/08/19 07:24:17;;;;;;;8.57;7.10;;;;;;;24.63;57.37;100098.91;5104077;28;20108;-70
2022/08/19 07:26:44;;;;;;;11.80;7.32;;;;;;;24.87;56.51;100098.88;5100682;28;20371;-71
2022/08/19 07:29:11;;;;;;;13.63;8.10;;;;;;;25.15;56.19;100105.66;5106780;28;20135;-71
2022/08/19 07:31:39;;;;;;;11.80;8.32;;;;;;;25.33;53.08;100096.47;5098630;28;20047;-70
2022/08/19 07:34:13;;;;;;;11.77;8.77;;;;;;;25.43;53.21;100083.53;5098179;28;20052;-70
2022/08/19 07:36:41;;;;;;;14.32;9.30;;;;;;;25.55;53.12;100079.41;5094124;28;20131;-70
2022/08/19 07:39:18;;;;;;;9.57;7.90;;;;;;;25.71;52.79;100087.50;5099530;28;20083;-71
2022/08/19 07:41:46;;;;;;;9.52;7.30;;;;;;;25.73;51.29;100065.66;5087207;28;20064;-71
2022/08/19 07:44:13;;;;;;;9.77;6.60;;;;;;;25.69;51.83;100081.41;5102950;28;20063;-71
2022/08/19 07:46:44;;;;;;;7.25;5.82;;;;;;;25.72;52.30;100091.06;5104106;28;20207;-73
2022/08/19 07:49:18;;;;;;;5.95;5.30;;;;;;;25.96;51.31;100096.38;5097325;28;20043;-69
2022/08/19 07:52:01;;;;;;;7.53;6.00;;;;;;;25.99;50.88;100085.16;5100210;28;20079;-68
2022/08/19 07:54:30;;;;;;;6.15;5.55;;;;;;;25.97;50.54;100092.66;5103420;28;20082;-69
2022/08/19 07:56:57;;;;;;;6.47;5.07;;;;;;;25.89;49.98;100087.25;5104246;28;20093;-70
2022/08/19 07:59:23;;;;;;;5.95;4.90;;;;;;;25.92;50.26;100091.50;5105741;28;20074;-70
2022/08/19 08:01:51;;;;;;;7.15;5.30;;;;;;;25.90;49.95;100094.38;5102808;28;20098;-72
2022/08/19 08:09:57;;;;;;;7.82;5.88;;;;;;;25.97;50.42;100105.38;5102481;28;20071;-69
2022/08/19 08:12:31;;;;;;;8.05;5.30;;;;;;;26.03;51.17;100110.91;5092389;28;20097;-71
2022/08/19 08:15:07;;;;;;;7.15;5.78;;;;;;;26.17;50.74;100083.00;5097759;28;20123;-70
2022/08/19 08:17:39;;;;;;;8.45;5.90;;;;;;;26.29;49.79;100101.66;5100794;28;20048;-70
2022/08/19 08:20:17;;;;;;;5.40;4.90;;;;;;;26.31;50.53;100099.56;5100152;28;20652;-71
2022/08/19 08:25:32;;;;;;;8.30;5.53;;;;;;;26.77;49.29;100076.78;5100670;28;20043;-70
2022/08/19 08:28:01;;;;;;;7.10;5.70;;;;;;;27.12;47.93;100101.59;5100663;28;20219;-70
2022/08/19 08:30:29;;;;;;;7.05;6.00;;;;;;;27.20;47.09;100101.53;5108302;28;20047;-69
2022/08/19 08:32:58;;;;;;;6.50;5.90;;;;;;;26.68;48.25;100094.19;5104129;28;20103;-71
2022/08/19 08:35:25;;;;;;;6.18;5.53;;;;;;;26.34;48.84;100091.91;5106677;28;20437;-70
2022/08/19 08:37:54;;;;;;;6.43;5.45;;;;;;;26.04;50.31;100093.63;5099898;28;20067;-71
2022/08/19 08:40:31;;;;;;;7.15;5.78;;;;;;;25.98;50.29;100112.47;5086816;28;20051;-70
2022/08/19 08:43:30;;;;;;;6.65;5.57;;;;;;;25.71;51.25;100106.50;5099254;28;20096;-69
2022/08/19 08:46:09;;;;;;;6.93;5.57;;;;;;;25.70;51.48;100109.38;5105928;28;20048;-70
2022/08/19 08:48:53;;;;;;;9.82;6.53;;;;;;;25.49;50.71;100108.09;5103913;28;20070;-71
2022/08/19 08:51:47;;;;;;;8.50;5.97;;;;;;;25.42;52.26;100119.81;5105232;27;20122;-70
2022/08/19 08:54:31;;;;;;;6.65;5.43;;;;;;;25.78;51.25;100118.34;5101877;28;20040;-73
2022/08/19 08:57:02;;;;;;;8.45;5.78;;;;;;;26.17;49.60;100095.72;5107133;27;20043;-71
2022/08/19 08:59:34;;;;;;;7.38;5.90;;;;;;;26.12;49.60;100087.31;5111641;27;20100;-72
2022/08/19 09:02:00;;;;;;;9.77;5.80;;;;;;;26.34;49.41;100107.34;5110937;27;20040;-69
2022/08/19 09:04:28;;;;;;;7.55;5.60;;;;;;;26.36;49.84;100099.88;5105675;28;20035;-71
2022/08/19 09:07:09;;;;;;;7.20;5.60;;;;;;;26.32;49.28;100082.25;5099012;28;20109;-70
2022/08/19 09:10:26;;;;;;;6.45;5.45;;;;;;;26.40;48.64;100099.34;5096760;27;20049;-70
2022/08/19 09:13:23;;;;;;;6.25;5.32;;;;;;;26.32;48.52;100107.53;5107707;27;20101;-70
2022/08/19 09:16:12;;;;;;;5.78;5.25;;;;;;;26.37;47.75;100098.84;5108703;27;20044;-68
2022/08/19 09:18:39;;;;;;;6.97;5.63;;;;;;;26.41;48.44;100082.03;5104900;28;20108;-71
2022/08/19 09:21:07;;;;;;;6.07;5.25;;;;;;;26.59;47.76;100087.16;5107061;27;20044;-71
2022/08/19 09:23:35;;;;;;;6.45;4.50;;;;;;;26.65;47.54;100096.41;5102079;27;20064;-70
2022/08/19 09:26:13;;;;;;;8.57;4.93;;;;;;;26.55;46.96;100088.53;5107224;27;20051;-69
2022/08/19 09:28:43;;;;;;;6.47;4.93;;;;;;;26.32;48.20;100068.69;5102780;28;20047;-68
2022/08/19 09:31:17;;;;;;;6.72;5.07;;;;;;;26.23;48.31;100072.47;5103997;27;20492;-70
2022/08/19 09:33:44;;;;;;;6.40;5.18;;;;;;;25.99;49.08;100055.31;5100935;27;20538;-70
2022/08/19 09:36:20;;;;;;;6.13;5.20;;;;;;;26.30;48.67;100084.31;5096504;27;20578;-71
2022/08/19 09:38:52;;;;;;;7.75;4.90;;;;;;;26.28;47.71;100072.78;5094068;28;20105;-69
2022/08/19 09:41:21;;;;;;;8.00;4.85;;;;;;;26.20;47.73;100074.50;5093730;27;20570;-70
2022/08/19 09:43:51;;;;;;;8.13;5.60;;;;;;;26.30;47.95;100087.00;5106219;27;20540;-72
2022/08/19 09:46:22;;;;;;;7.68;5.70;;;;;;;26.20;47.26;100079.94;5104504;27;20635;-71
2022/08/19 09:48:51;;;;;;;9.25;5.28;;;;;;;26.36;48.12;100079.00;5095782;28;20437;-72
2022/08/19 09:51:24;;;;;;;8.68;5.80;;;;;;;26.65;47.24;100085.56;5100436;28;20044;-75
2022/08/19 09:53:53;;;;;;;6.65;5.75;;;;;;;26.68;47.50;100083.31;5097014;28;20138;-70
2022/08/19 09:56:21;;;;;;;;;;;;;;;26.71;47.46;100085.69;5098467;27;20044;-70
2022/08/19 09:58:50;;;;;;;7.60;5.30;;;;;;;26.74;47.52;100071.75;5091693;27;20015;-72
2022/08/19 10:01:21;;;;;;;7.28;5.45;;;;;;;26.65;46.64;100051.09;5090959;27;20482;-70
2022/08/19 10:03:50;;;;;;;6.25;5.65;;;;;;;26.68;46.25;100071.63;5095043;28;20544;-70
2022/08/19 10:06:18;;;;;;;7.10;5.70;;;;;;;26.55;47.20;100083.94;5098996;27;20118;-71
2022/08/19 10:09:07;;;;;;;7.15;6.30;;;;;;;26.43;47.28;100069.13;5091233;28;20053;-69
2022/08/19 10:11:36;;;;;;;7.53;6.82;;;;;;;26.53;47.41;100064.28;5096948;28;20170;-71
2022/08/19 10:14:06;;;;;;;8.52;6.45;;;;;;;26.62;47.05;100078.59;5085671;28;22442;-70
2022/08/19 10:16:35;;;;;;;8.25;6.55;;;;;;;26.60;47.24;100086.13;5097123;28;20067;-71
2022/08/19 10:19:05;;;;;;;7.78;6.95;;;;;;;26.39;47.17;100081.38;5099571;28;20101;-69
2022/08/19 10:21:34;;;;;;;7.50;6.65;;;;;;;26.08;47.37;100066.97;5101401;28;20109;-70
2022/08/19 10:24:03;;;;;;;9.55;7.30;;;;;;;26.24;47.64;100091.28;5095204;28;20066;-72
2022/08/19 10:26:37;;;;;;;7.10;6.40;;;;;;;26.47;47.39;100091.28;5098129;28;20529;-70
2022/08/19 10:29:05;;;;;;;6.82;6.22;;;;;;;26.98;46.48;100077.97;5089262;28;20093;-72
2022/08/19 10:31:34;;;;;;;7.65;6.85;;;;;;;27.28;45.21;100071.53;5102058;27;20499;-70
2022/08/19 10:34:21;;;;;;;8.50;7.18;;;;;;;27.40;44.37;100063.72;5083614;27;20138;-71
2022/08/19 10:36:54;;;;;;;8.00;7.30;;;;;;;27.30;44.83;100068.63;5116995;27;20448;-71
2022/08/19 10:39:31;;;;;;;10.02;7.75;;;;;;;27.02;45.79;100071.16;5102378;27;20047;-71
2022/08/19 10:42:07;;;;;;;8.95;8.05;;;;;;;26.73;46.06;100071.91;5110889;27;20107;-70
2022/08/19 10:44:35;;;;;;;9.35;8.45;;;;;;;26.60;46.78;100055.41;5099868;27;20123;-70
2022/08/19 10:47:03;;;;;;;12.38;9.00;;;;;;;26.67;46.97;100070.78;5116465;27;20047;-69
2022/08/19 10:52:33;;;;;;;9.95;8.90;;;;;;;26.83;45.41;100064.34;5107990;27;20406;-72
2022/08/19 10:57:55;;;;;;;9.98;8.95;;;;;;;26.84;44.91;100058.72;5111873;27;20069;-70
2022/08/19 11:00:31;;;;;;;9.50;8.55;;;;;;;27.11;44.91;100057.28;5100536;27;20071;-70
2022/08/19 11:02:57;;;;;;;9.45;8.57;;;;;;;27.48;44.40;100053.63;5113797;27;20050;-70
2022/08/19 11:05:24;;;;;;;13.07;10.50;;;;;;;27.56;43.84;100030.88;5104086;27;20138;-71
2022/08/19 11:07:51;;;;;;;10.95;9.85;;;;;;;27.70;43.58;100040.13;5085649;27;20104;-70
2022/08/19 11:10:18;;;;;;;10.35;9.35;;;;;;;27.66;43.23;100030.66;5095245;27;20044;-72
2022/08/19 11:12:47;;;;;;;12.48;10.32;;;;;;;27.83;43.60;100026.66;5103285;27;20071;-70
2022/08/19 11:15:15;;;;;;;11.40;10.23;;;;;;;28.04;43.10;100029.38;5099681;27;20653;-71
2022/08/19 11:17:43;;;;;;;11.10;9.85;;;;;;;28.15;42.81;100036.22;5103571;27;20691;-71
2022/08/19 11:20:14;;;;;;;10.75;9.65;;;;;;;28.07;41.53;100017.25;5105669;27;20039;-71
2022/08/19 11:22:41;;;;;;;11.10;10.00;;;;;;;28.18;40.97;100031.19;5111141;27;20048;-70
2022/08/19 11:25:10;;;;;;;13.68;10.70;;;;;;;28.25;40.71;100015.81;5098008;28;20069;-70
2022/08/19 11:27:43;;;;;;;12.27;9.48;;;;;;;28.46;40.82;100022.28;5106371;27;20096;-71
2022/08/19 11:30:12;;;;;;;11.55;10.45;;;;;;;28.71;40.47;100012.63;5102979;27;20043;-70
2022/08/19 11:32:42;;;;;;;12.00;10.82;;;;;;;28.47;40.40;100013.06;5106587;27;20066;-71
2022/08/19 11:35:15;;;;;;;11.90;10.80;;;;;;;27.91;42.16;100002.88;5105546;28;20051;-71
2022/08/19 11:37:42;;;;;;;12.52;11.20;;;;;;;27.58;42.93;99997.06;5100336;28;20132;-70
2022/08/19 11:40:09;;;;;;;10.75;9.40;;;;;;;27.51;41.28;100003.44;5105027;28;20120;-71
2022/08/19 11:42:55;;;;;;;10.07;9.18;;;;;;;27.26;41.41;99978.44;5112980;28;20126;-71
2022/08/19 11:45:26;;;;;;;10.45;9.38;;;;;;;27.36;42.15;100003.47;5109262;28;20486;-72
2022/08/19 11:47:54;;;;;;;9.48;8.48;;;;;;;27.67;40.76;99996.97;5099616;28;20051;-70
2022/08/19 11:50:23;;;;;;;10.70;9.70;;;;;;;28.11;41.33;100003.09;5106022;28;20562;-70
2022/08/19 11:52:56;;;;;;;10.80;9.75;;;;;;;28.19;40.25;99992.06;5105132;28;20039;-69
2022/08/19 11:55:23;;;;;;;11.88;10.48;;;;;;;27.96;41.14;99999.59;5100130;28;20052;-70